Language selection

Features

My Weather Profile Weather Topics  | 

West Coast Haida Gwaii - northern half: Past 24 Hour Conditions

 

Sandspit Airport

04:00 AM PST 16 December 2019
Disclaimer

This table is a summary of hourly weather conditions for the past 24 hours.
Please note that these observations might not always be representative of weather conditions over their associated marine area.

Date / Time
(PST)
Wind(knots) Conditions Visibility(km) Pressure(kPa) Air tempC) Relative humidity(%) Dew pointC)
16 December 2019
4:00 SW 7 Clear 16 100.7 8 94 7
3:00 W 12 Cloudy 16 100.6 8 97 8
2:00 SSE 16 gust 21 Light Rain 13 100.5 9 97 8
1:00 SSE 20 gust 25 Light Rain 11 100.5 9 97 8
0:00 SSE 17 Light Rain 6 100.6 9 97 8
15 December 2019
23:00 SSE 21 gust 26 Light Rain 11 100.6 9 96 8
22:00 SSE 25 gust 32 Cloudy 11 100.6 8 95 8
21:00 SE 26 gust 33 Light Rain 8 100.6 8 96 8
20:00 SE 29 gust 38 Light Rain 16 100.7 8 95 7
19:00 SSE 30 gust 37 Mist 10 100.8 8 94 7
18:00 SE 32 gust 40 Light Rain 6 100.9 8 92 6
17:00 SE 34 gust 39 Light Rain 6 100.9 8 93 6
16:00 SE 30 gust 39 Light Rain 15 101.0 7 93 6
15:00 SE 30 gust 36 Light Rain 16 101.1 7 91 6
14:00 SE 28 gust 37 Light Rain 15 101.2 7 90 6
13:00 SE 27 gust 35 Light Rain 16 101.3 7 90 6
12:00 SSE 24 gust 31 Cloudy 16 101.3 7 91 6
11:00 SE 27 gust 34 Light Rain 10 101.4 6 93 5
10:00 SE 26 gust 32 Light Rain 6 101.5 5 92 4
9:00 SE 22 gust 27 Mist 6 101.5 5 90 4
8:00 SE 22 gust 27 Cloudy 16 101.5 6 81 3
7:00 SE 19 gust 28 Mostly Cloudy 16 101.5 6 83 3
6:00 SE 19 gust 25 Cloudy 16 101.5 6 88 4
5:00 SSE 2 Mostly Cloudy 16 101.6 3 96 2
4:00 W 5 Mostly Cloudy 16 101.6 2 98 2

Zoom-in to make a selection

Map of Pacific - North Coast marine weather areas Middle Nomad - 46004 South Nomad - 46036 Dixon Entrance Central - 46145 South Moresby - 46147 Nanakwa Shoal - 46181 North Hecate Strait - 46183 North Nomad - 46184 South Hecate Strait - 46185 West Sea Otter - 46204 West Dixon Entrance - 46205 East Dellwood - 46207 West Moresby - 46208 Sartine Island Cape St.James Kindakun Rocks Langara Island Masset Municipal Airport Rose Spit Sandspit Airport Bella Bella Airport Bella Coola Airport Bonilla Island Cathedral Point Cumshewa Island Grey Islet Holland Rock Lucy Islands Lightstation Prince Rupert Airport
Legend:
buoy Buoy
land station Land Station

Pacific - North Coast Area

Another Region

What we are doing

Date modified: